Greenwood, Missouri
Current Conditions -  °F | °C
As of 3:53 AM on Monday 20 Oct 2014 (Local Time) from KLXT Reporting Station
Clear Clear  
Wind Chill: 54°   Ceiling: Unl
Heat Index: 54°   Visibility: 10mi
Dew Point: 51°   Wind: 7mph
Humidity: 90%   Direction: 240°WSW
Pressure: 30"   Gusts: NA
Location:  38.85°N, 94.34°W
Report Text: KLXT 200853Z AUTO 24006KT 10SM CLR 12/11 A3000 RMK AO2 SLP157 T01220106 58003
Loading
Personal Weather Stations






























Interactive Weather Map
Tropical Storm Tracking
New forecast layout! Learn more

10-Day Weather Forecast

Advertisements
Track Severe Weather on mobile